Time;durP1;ratioP1;P1;durP2;ratioP2;P2;SDS_P1;SDS_P2;PMS_P1;PMS_P2;Temp;Humidity;BMP_temperature;BMP_pressure;BME280_temperature;BME280_humidity;BME280_pressure;Samples;Min_cycle;Max_cycle;Signal;HPM_P1;HPM_P2
2022/11/14 00:00:39;;;;;;;8.77;7.87;;;8.10;99.90;;;;;;5110036;28;20839;-35
2022/11/14 00:03:06;;;;;;;9.70;8.40;;;8.00;99.90;;;;;;5119379;27;20426;-35
2022/11/14 00:05:32;;;;;;;10.40;8.43;;;8.10;99.90;;;;;;5104483;27;20449;-35
2022/11/14 00:07:58;;;;;;;9.97;8.83;;;8.00;99.90;;;;;;5089768;28;20510;-36
2022/11/14 00:10:23;;;;;;;9.83;8.93;;;8.00;99.90;;;;;;5110870;28;20484;-35
2022/11/14 00:12:49;;;;;;;9.67;8.37;;;8.00;99.90;;;;;;5101258;28;20188;-35
2022/11/14 00:15:15;;;;;;;10.27;8.60;;;8.00;99.90;;;;;;5092973;28;20275;-35
2022/11/14 00:17:41;;;;;;;10.17;9.07;;;7.80;99.90;;;;;;5093615;28;20799;-35
2022/11/14 00:20:09;;;;;;;9.53;8.30;;;7.90;99.90;;;;;;5092923;28;20219;-35
2022/11/14 00:22:35;;;;;;;10.30;8.70;;;7.80;99.90;;;;;;5095703;27;20195;-35
2022/11/14 00:25:00;;;;;;;12.63;8.77;;;7.60;99.90;;;;;;5093453;28;20452;-35
2022/11/14 00:27:26;;;;;;;10.13;9.03;;;7.60;99.90;;;;;;5093414;28;20647;-36
2022/11/14 00:29:52;;;;;;;9.60;8.70;;;7.60;99.90;;;;;;5103814;28;20577;-35
2022/11/14 00:32:19;;;;;;;9.97;9.07;;;7.60;99.90;;;;;;5093557;28;20200;-35
2022/11/14 00:34:44;;;;;;;10.27;8.67;;;7.60;99.90;;;;;;5092295;28;20275;-35
2022/11/14 00:37:10;;;;;;;10.60;8.80;;;7.40;99.90;;;;;;5093160;28;20509;-35
2022/11/14 00:39:36;;;;;;;9.10;8.20;;;7.30;99.90;;;;;;5092850;28;20244;-35
2022/11/14 00:42:01;;;;;;;9.07;8.17;;;7.40;99.90;;;;;;5113416;28;20222;-35
2022/11/14 00:44:27;;;;;;;9.00;8.10;;;7.40;99.90;;;;;;5111535;28;20190;-35
2022/11/14 00:46:53;;;;;;;9.00;8.10;;;7.50;99.90;;;;;;5113357;28;20186;-35
2022/11/14 00:49:18;;;;;;;14.53;10.17;;;7.40;99.90;;;;;;5113184;28;20190;-35
2022/11/14 00:51:44;;;;;;;9.27;8.27;;;7.20;99.90;;;;;;5113319;28;20198;-35
2022/11/14 00:54:10;;;;;;;9.97;8.97;;;7.20;99.90;;;;;;5113011;28;20188;-35
2022/11/14 00:56:35;;;;;;;9.00;8.20;;;7.10;99.90;;;;;;5113260;28;20747;-35
2022/11/14 00:59:01;;;;;;;10.17;9.13;;;7.10;99.90;;;;;;5112380;28;20466;-35
2022/11/14 01:01:27;;;;;;;10.10;9.13;;;7.10;99.90;;;;;;5113066;28;20817;-35
2022/11/14 01:03:52;;;;;;;8.40;7.50;;;7.00;99.90;;;;;;5112629;28;20184;-35
2022/11/14 01:06:18;;;;;;;9.43;8.53;;;7.30;99.90;;;;;;5113005;28;20203;-35
2022/11/14 01:08:44;;;;;;;9.03;8.13;;;7.00;99.90;;;;;;5112692;28;20190;-35
2022/11/14 01:11:16;;;;;;;9.70;8.80;;;7.00;99.90;;;;;;5092370;28;20418;-35
2022/11/14 01:13:42;;;;;;;8.60;7.70;;;6.90;99.90;;;;;;5092133;28;21069;-35
2022/11/14 01:16:09;;;;;;;10.50;9.50;;;6.90;99.90;;;;;;5091307;28;20407;-35
2022/11/14 01:18:36;;;;;;;8.93;8.03;;;6.90;99.90;;;;;;5090637;28;20441;-35
2022/11/14 01:21:09;;;;;;;11.93;9.20;;;6.80;99.90;;;;;;5092427;28;20411;-35
2022/11/14 01:23:35;;;;;;;9.80;8.90;;;6.70;99.90;;;;;;5124891;27;20420;-35
2022/11/14 01:26:06;;;;;;;9.00;8.10;;;7.00;99.90;;;;;;5132008;27;20405;-35
2022/11/14 01:28:32;;;;;;;10.27;9.20;;;6.80;99.90;;;;;;5133044;27;20878;-35
2022/11/14 01:31:27;;;;;;;9.37;8.23;;;6.80;99.90;;;;;;5112838;27;20505;-35
2022/11/14 01:33:53;;;;;;;8.93;8.00;;;6.50;99.90;;;;;;5106385;28;20414;-35
2022/11/14 01:36:20;;;;;;;10.13;8.83;;;6.50;99.90;;;;;;5112301;28;20421;-35
2022/11/14 01:38:51;;;;;;;9.80;8.10;;;6.60;99.90;;;;;;5112262;28;20414;-35
2022/11/14 01:41:17;;;;;;;9.00;8.10;;;6.30;99.90;;;;;;5112257;28;20470;-35
2022/11/14 01:43:42;;;;;;;8.80;7.90;;;6.40;99.90;;;;;;5112311;28;20406;-35
2022/11/14 01:46:19;;;;;;;9.50;8.50;;;6.50;99.90;;;;;;5112263;28;20183;-35
2022/11/14 01:49:12;;;;;;;9.30;8.40;;;6.50;99.90;;;;;;5112158;28;20176;-35
2022/11/14 01:51:52;;;;;;;9.20;8.30;;;6.40;99.90;;;;;;5110896;28;20508;-35
2022/11/14 01:54:25;;;;;;;10.03;8.67;;;6.60;99.90;;;;;;5111936;28;20398;-35
2022/11/14 01:56:57;;;;;;;9.57;8.57;;;6.70;99.90;;;;;;5112166;28;20562;-35
2022/11/14 01:59:27;;;;;;;10.73;8.80;;;6.60;99.90;;;;;;5111508;28;20441;-35
2022/11/14 02:01:56;;;;;;;8.30;7.50;;;6.30;99.90;;;;;;5112070;28;21149;-35
2022/11/14 02:04:28;;;;;;;9.30;8.30;;;6.40;99.90;;;;;;5111698;28;20410;-35
2022/11/14 02:06:59;;;;;;;10.87;9.00;;;6.40;99.90;;;;;;5111756;28;20776;-35
2022/11/14 02:09:27;;;;;;;10.03;9.03;;;6.40;99.90;;;;;;5111501;28;20448;-35
2022/11/14 02:11:55;;;;;;;9.73;8.73;;;6.20;99.90;;;;;;5111860;28;20417;-35
2022/11/14 02:14:21;;;;;;;9.17;8.27;;;6.30;99.90;;;;;;5110311;28;20791;-34
2022/11/14 02:16:47;;;;;;;10.63;9.63;;;6.30;99.90;;;;;;5111853;28;20417;-35
2022/11/14 02:19:16;;;;;;;9.20;8.30;;;6.00;99.90;;;;;;5109797;28;20454;-35
2022/11/14 02:21:42;;;;;;;9.60;8.70;;;6.10;99.90;;;;;;5112291;28;20493;-34
2022/11/14 02:24:10;;;;;;;10.40;8.83;;;6.10;99.90;;;;;;5130650;27;20491;-35
2022/11/14 02:26:36;;;;;;;9.80;8.80;;;6.20;99.90;;;;;;5131912;27;20167;-35
2022/11/14 02:29:03;;;;;;;9.23;8.33;;;5.90;99.90;;;;;;5127606;27;20807;-35
2022/11/14 02:31:29;;;;;;;10.17;8.53;;;6.20;99.90;;;;;;5111450;28;20417;-35
2022/11/14 02:33:55;;;;;;;8.73;7.83;;;6.00;99.90;;;;;;5109727;28;20409;-35
2022/11/14 02:36:20;;;;;;;11.87;9.53;;;6.00;99.90;;;;;;5109807;28;20676;-34
2022/11/14 02:38:46;;;;;;;12.80;9.70;;;6.10;99.90;;;;;;5110039;28;20275;-35
2022/11/14 02:41:12;;;;;;;11.00;9.07;;;6.00;99.90;;;;;;5110757;28;20739;-36
2022/11/14 02:43:37;;;;;;;10.80;9.50;;;6.20;99.90;;;;;;5111004;28;20168;-35
2022/11/14 02:46:03;;;;;;;10.90;9.77;;;5.90;99.90;;;;;;5111112;28;20172;-35
2022/11/14 02:48:29;;;;;;;11.83;9.80;;;6.00;99.90;;;;;;5110547;28;20562;-35
2022/11/14 02:50:54;;;;;;;10.30;9.20;;;5.90;99.90;;;;;;5109775;28;20175;-35
2022/11/14 02:53:20;;;;;;;10.30;9.30;;;5.80;99.90;;;;;;5110799;28;20192;-35
2022/11/14 02:55:46;;;;;;;9.97;8.97;;;5.70;99.90;;;;;;5110562;28;20176;-35
2022/11/14 02:58:11;;;;;;;10.20;9.13;;;5.70;99.90;;;;;;5111045;28;20184;-35
2022/11/14 03:00:37;;;;;;;11.20;9.37;;;5.80;99.90;;;;;;5110464;28;20211;-35
2022/11/14 03:03:03;;;;;;;12.80;9.17;;;5.60;99.90;;;;;;5110719;28;20175;-35
2022/11/14 03:05:28;;;;;;;10.57;9.33;;;5.40;99.90;;;;;;5110875;28;20283;-35
2022/11/14 03:07:55;;;;;;;11.67;8.50;;;5.70;99.90;;;;;;5109488;28;20661;-35
2022/11/14 03:10:22;;;;;;;9.57;8.67;;;5.30;99.90;;;;;;5110727;28;20175;-35
2022/11/14 03:12:51;;;;;;;11.40;10.27;;;5.40;99.90;;;;;;5110438;28;20421;-35
2022/11/14 03:15:17;;;;;;;10.63;9.50;;;5.40;99.90;;;;;;5109414;28;20475;-36
2022/11/14 03:17:42;;;;;;;10.47;9.47;;;5.50;99.90;;;;;;5110684;28;20413;-35
2022/11/14 03:20:09;;;;;;;11.23;9.50;;;5.40;99.90;;;;;;5110334;28;20199;-35
2022/11/14 03:22:34;;;;;;;10.27;9.37;;;5.70;99.90;;;;;;5110149;28;20792;-35
2022/11/14 03:25:00;;;;;;;11.80;10.60;;;5.50;99.90;;;;;;5110483;28;20499;-35
2022/11/14 03:27:26;;;;;;;10.80;9.70;;;5.70;99.90;;;;;;5110617;28;20574;-35
2022/11/14 03:29:52;;;;;;;10.13;9.10;;;5.40;99.90;;;;;;5110066;28;20188;-35
2022/11/14 03:32:17;;;;;;;10.50;9.40;;;5.40;99.90;;;;;;5108970;28;20636;-35
2022/11/14 03:34:43;;;;;;;11.40;9.23;;;5.60;99.90;;;;;;5109434;28;20176;-35
2022/11/14 03:37:09;;;;;;;11.13;9.90;;;5.60;99.90;;;;;;5109210;28;20271;-35
2022/11/14 03:39:34;;;;;;;9.43;8.43;;;5.60;99.90;;;;;;5109673;28;20472;-35
2022/11/14 03:42:00;;;;;;;11.23;9.93;;;5.80;99.90;;;;;;5110516;28;20176;-35
2022/11/14 03:44:26;;;;;;;12.30;10.50;;;5.70;99.90;;;;;;5108761;28;20228;-36
2022/11/14 03:46:51;;;;;;;13.03;10.33;;;5.70;99.90;;;;;;5110411;28;20180;-35
2022/11/14 03:49:17;;;;;;;10.73;9.30;;;5.70;99.90;;;;;;5112160;28;20270;-35
2022/11/14 03:51:43;;;;;;;10.47;9.47;;;5.70;99.90;;;;;;5114681;28;20240;-35
2022/11/14 03:54:09;;;;;;;11.23;9.77;;;5.70;99.90;;;;;;5114127;28;20175;-35
2022/11/14 03:56:35;;;;;;;12.27;10.50;;;5.80;99.90;;;;;;5114372;28;20187;-35
2022/11/14 03:59:00;;;;;;;12.10;10.17;;;5.90;99.90;;;;;;5112844;28;20441;-35
2022/11/14 04:01:28;;;;;;;12.33;10.60;;;5.80;99.90;;;;;;5114254;27;20966;-35
2022/11/14 04:03:53;;;;;;;11.30;9.37;;;5.80;99.90;;;;;;5114302;28;20545;-36
2022/11/14 04:06:20;;;;;;;12.10;10.17;;;5.60;99.90;;;;;;5112800;28;20433;-35
2022/11/14 04:08:45;;;;;;;12.37;10.10;;;5.60;99.90;;;;;;5113907;28;20770;-35
2022/11/14 04:11:11;;;;;;;14.70;10.00;;;5.60;99.90;;;;;;5114301;28;20406;-35
2022/11/14 04:13:37;;;;;;;15.07;10.90;;;5.50;99.90;;;;;;5113941;28;20743;-35
2022/11/14 04:16:03;;;;;;;12.73;10.10;;;5.80;99.90;;;;;;5114102;28;20175;-35
2022/11/14 04:18:28;;;;;;;10.70;9.60;;;5.50;99.90;;;;;;5113705;28;20275;-35
2022/11/14 04:20:54;;;;;;;11.20;9.97;;;5.50;99.90;;;;;;5114063;28;20540;-35
2022/11/14 04:23:20;;;;;;;12.10;10.57;;;5.70;99.90;;;;;;5113270;27;20256;-35
2022/11/14 04:25:47;;;;;;;11.53;9.27;;;5.70;99.90;;;;;;5114148;28;20186;-35
2022/11/14 04:28:13;;;;;;;11.00;9.87;;;5.50;99.90;;;;;;5113871;28;20411;-35
2022/11/14 04:30:39;;;;;;;11.50;9.50;;;5.60;99.90;;;;;;5113594;28;20424;-35
2022/11/14 04:33:04;;;;;;;12.23;9.63;;;5.40;99.90;;;;;;5112654;28;20413;-35
2022/11/14 04:35:30;;;;;;;12.93;11.13;;;5.50;99.90;;;;;;5113627;27;20421;-35
2022/11/14 04:37:56;;;;;;;11.70;9.10;;;5.50;99.90;;;;;;5113355;28;20187;-35
2022/11/14 04:40:22;;;;;;;10.30;9.20;;;5.30;99.90;;;;;;5113219;28;20602;-35
2022/11/14 04:42:48;;;;;;;10.60;9.50;;;5.30;99.90;;;;;;5113171;28;20176;-35
2022/11/14 04:45:13;;;;;;;10.87;8.90;;;5.60;99.90;;;;;;5113765;28;20580;-35
2022/11/14 04:47:43;;;;;;;11.20;9.07;;;5.30;99.90;;;;;;5113470;28;21099;-35
2022/11/14 04:50:09;;;;;;;9.93;8.83;;;5.50;99.90;;;;;;5113005;28;20409;-35
2022/11/14 04:52:35;;;;;;;10.83;9.73;;;5.30;99.90;;;;;;5111993;28;20420;-35
2022/11/14 04:55:01;;;;;;;10.30;9.30;;;5.40;99.90;;;;;;5113255;28;20409;-35
2022/11/14 04:57:26;;;;;;;10.47;9.37;;;5.30;99.90;;;;;;5113302;28;20176;-34
2022/11/14 04:59:52;;;;;;;13.53;10.27;;;5.20;99.90;;;;;;5112719;28;20806;-35
2022/11/14 05:02:18;;;;;;;13.33;10.00;;;5.60;99.90;;;;;;5113254;28;20176;-35
2022/11/14 05:04:44;;;;;;;11.13;10.00;;;5.70;99.90;;;;;;5112954;28;20203;-34
2022/11/14 05:07:10;;;;;;;12.37;8.53;;;5.60;99.90;;;;;;5113043;28;20194;-35
2022/11/14 05:09:35;;;;;;;11.07;8.87;;;5.80;99.90;;;;;;5112558;28;20786;-35
2022/11/14 05:12:02;;;;;;;11.03;8.80;;;5.90;99.90;;;;;;5113073;28;20192;-34
2022/11/14 05:14:28;;;;;;;9.73;8.37;;;6.10;99.90;;;;;;5112764;28;20200;-35
2022/11/14 05:16:54;;;;;;;8.70;7.77;;;6.10;99.90;;;;;;5112926;28;20897;-34
2022/11/14 05:19:19;;;;;;;9.63;7.50;;;6.50;99.90;;;;;;5112364;28;20264;-35
2022/11/14 05:21:45;;;;;;;11.10;8.00;;;6.80;99.90;;;;;;5112562;28;20927;-35
2022/11/14 05:24:10;;;;;;;9.60;7.83;;;6.80;99.90;;;;;;5112586;28;20689;-35
2022/11/14 05:26:36;;;;;;;10.40;9.00;;;6.70;99.90;;;;;;5112653;28;20630;-35
2022/11/14 05:29:03;;;;;;;10.20;8.30;;;6.70;99.90;;;;;;5112491;28;20178;-35
2022/11/14 05:31:28;;;;;;;10.20;8.40;;;6.60;99.90;;;;;;5112554;28;20428;-35
2022/11/14 05:33:54;;;;;;;9.97;7.80;;;6.80;99.90;;;;;;5111452;28;20410;-35
2022/11/14 05:36:20;;;;;;;9.17;8.10;;;6.90;99.90;;;;;;5112387;28;20195;-35
2022/11/14 05:38:46;;;;;;;9.33;7.70;;;7.00;99.90;;;;;;5112257;28;20255;-35
2022/11/14 05:41:14;;;;;;;10.77;8.10;;;7.10;99.90;;;;;;5108056;28;21328;-35
2022/11/14 05:43:40;;;;;;;10.43;7.53;;;7.20;99.90;;;;;;5113241;27;20561;-35
2022/11/14 05:46:09;;;;;;;12.03;9.10;;;7.30;99.90;;;;;;5119645;27;20408;-36
2022/11/14 05:48:35;;;;;;;9.00;7.70;;;7.30;99.90;;;;;;5123518;27;20420;-35
2022/11/14 05:51:02;;;;;;;10.50;8.47;;;7.40;99.90;;;;;;5127192;27;21118;-36
2022/11/14 05:53:29;;;;;;;9.37;7.93;;;7.30;99.90;;;;;;5117108;27;20194;-35
2022/11/14 05:55:54;;;;;;;11.97;9.17;;;7.40;99.90;;;;;;5125538;27;20420;-35
2022/11/14 05:58:21;;;;;;;8.60;7.70;;;7.40;99.90;;;;;;5132554;27;20895;-35
2022/11/14 06:00:47;;;;;;;8.30;7.50;;;7.50;99.90;;;;;;5132392;27;20194;-35
2022/11/14 06:03:13;;;;;;;11.00;8.10;;;7.30;99.90;;;;;;5132080;27;21113;-35
2022/11/14 06:05:40;;;;;;;11.17;8.27;;;7.40;99.90;;;;;;5132530;27;20428;-35
2022/11/14 06:08:05;;;;;;;9.70;7.93;;;7.50;99.90;;;;;;5132552;27;20409;-35
2022/11/14 06:10:33;;;;;;;9.70;8.40;;;7.60;99.90;;;;;;5132137;27;20874;-35
2022/11/14 06:12:58;;;;;;;10.90;8.37;;;7.70;99.90;;;;;;5131762;27;20178;-35
2022/11/14 06:15:24;;;;;;;12.37;8.70;;;7.70;99.90;;;;;;5132302;27;20500;-35
2022/11/14 06:17:54;;;;;;;9.20;8.20;;;7.90;99.90;;;;;;5132180;27;20183;-35
2022/11/14 06:20:20;;;;;;;10.93;8.20;;;8.10;99.90;;;;;;5130377;27;20211;-35
2022/11/14 06:22:46;;;;;;;10.20;9.10;;;7.90;99.90;;;;;;5131895;27;20420;-35
2022/11/14 06:25:11;;;;;;;10.30;8.17;;;8.00;99.90;;;;;;5132175;27;20931;-35
2022/11/14 06:27:37;;;;;;;11.63;8.77;;;8.10;99.90;;;;;;5132171;27;20828;-35
2022/11/14 06:30:03;;;;;;;9.47;8.47;;;8.10;99.90;;;;;;5119126;27;20219;-35
2022/11/14 06:32:29;;;;;;;9.53;8.53;;;8.10;99.90;;;;;;5109691;28;20268;-35
2022/11/14 06:34:54;;;;;;;11.40;8.10;;;8.10;99.90;;;;;;5111277;28;20398;-35
2022/11/14 06:37:20;;;;;;;9.63;8.10;;;8.10;99.90;;;;;;5110996;28;20777;-35
2022/11/14 06:39:46;;;;;;;8.77;7.77;;;8.10;99.90;;;;;;5109930;28;20203;-35
2022/11/14 06:42:14;;;;;;;10.23;8.47;;;8.20;99.90;;;;;;5110269;28;20180;-35
2022/11/14 06:44:40;;;;;;;12.80;8.77;;;8.20;99.90;;;;;;5110070;28;20176;-36
2022/11/14 06:47:05;;;;;;;10.00;9.00;;;8.20;99.90;;;;;;5100790;27;20873;-35
2022/11/14 06:49:31;;;;;;;10.43;8.77;;;8.20;99.90;;;;;;5117527;27;20785;-35
2022/11/14 06:51:56;;;;;;;10.00;8.20;;;8.20;99.90;;;;;;5104840;27;20237;-35
2022/11/14 06:54:22;;;;;;;10.80;8.63;;;8.20;99.90;;;;;;5090480;28;20176;-35
2022/11/14 06:56:48;;;;;;;9.93;8.30;;;8.30;99.90;;;;;;5090515;28;20233;-35
2022/11/14 06:59:13;;;;;;;9.60;8.20;;;8.30;99.90;;;;;;5090059;28;20196;-35
2022/11/14 07:01:39;;;;;;;10.23;8.70;;;8.30;99.90;;;;;;5090556;28;20279;-35
2022/11/14 07:04:05;;;;;;;10.10;9.10;;;8.30;99.90;;;;;;5090483;28;20527;-35
2022/11/14 07:06:31;;;;;;;10.57;9.20;;;8.20;99.90;;;;;;5117944;27;20207;-35
2022/11/14 07:08:57;;;;;;;10.47;9.10;;;8.40;99.90;;;;;;5130854;27;20502;-35
2022/11/14 07:11:28;;;;;;;10.83;9.50;;;8.20;99.90;;;;;;5120180;27;20180;-35
2022/11/14 07:13:58;;;;;;;10.60;8.47;;;8.20;99.90;;;;;;5099307;28;20467;-35
2022/11/14 07:16:34;;;;;;;10.40;8.43;;;8.10;99.90;;;;;;5099045;28;20422;-35
2022/11/14 07:19:01;;;;;;;9.90;8.80;;;8.20;99.90;;;;;;5101223;28;20437;-35
2022/11/14 07:21:28;;;;;;;9.60;8.20;;;8.20;99.90;;;;;;5110776;28;20417;-35
2022/11/14 07:23:54;;;;;;;9.70;8.40;;;8.10;99.90;;;;;;5127046;27;20413;-35
2022/11/14 07:26:20;;;;;;;10.87;8.67;;;8.30;99.90;;;;;;5131169;27;20491;-35
2022/11/14 07:28:46;;;;;;;9.93;8.77;;;8.20;99.90;;;;;;5129014;27;20516;-35
2022/11/14 07:31:14;;;;;;;11.70;8.57;;;8.20;99.90;;;;;;5109374;28;20175;-35
2022/11/14 07:33:41;;;;;;;8.87;7.97;;;8.20;99.90;;;;;;5109387;28;20174;-35
2022/11/14 07:36:08;;;;;;;10.27;8.20;;;8.20;99.90;;;;;;5110368;28;20402;-35
2022/11/14 07:38:35;;;;;;;11.30;9.07;;;8.20;99.90;;;;;;5110178;28;20444;-35
2022/11/14 07:41:09;;;;;;;10.97;8.90;;;8.40;99.90;;;;;;5110067;28;20936;-35
2022/11/14 07:43:34;;;;;;;11.00;8.57;;;8.40;99.90;;;;;;5110233;28;20492;-35
2022/11/14 07:46:12;;;;;;;13.10;9.20;;;8.50;99.90;;;;;;5110337;28;20513;-35
2022/11/14 07:48:38;;;;;;;12.00;9.87;;;8.60;99.90;;;;;;5109984;28;20194;-35
2022/11/14 07:51:05;;;;;;;11.53;10.03;;;8.90;99.90;;;;;;5104104;28;20984;-36
2022/11/14 07:53:32;;;;;;;15.30;9.10;;;9.20;99.90;;;;;;5109689;28;20183;-35
2022/11/14 07:56:03;;;;;;;11.90;9.87;;;9.30;99.90;;;;;;5108515;28;20418;-35
2022/11/14 07:58:29;;;;;;;12.73;9.60;;;9.40;99.90;;;;;;5109957;28;20412;-34
2022/11/14 08:00:54;;;;;;;13.47;10.50;;;9.40;99.90;;;;;;5108640;28;20469;-35
2022/11/14 08:03:20;;;;;;;10.53;9.33;;;9.50;99.90;;;;;;5109925;28;20184;-35
2022/11/14 08:05:46;;;;;;;12.50;9.77;;;9.60;99.90;;;;;;5110130;28;20211;-35
2022/11/14 08:08:11;;;;;;;11.57;10.37;;;9.70;99.90;;;;;;5108397;28;20259;-35
2022/11/14 08:10:37;;;;;;;12.43;10.60;;;9.80;99.90;;;;;;5108467;28;20229;-35
2022/11/14 08:13:04;;;;;;;13.93;10.50;;;9.90;99.90;;;;;;5108405;28;20625;-35
2022/11/14 08:15:31;;;;;;;12.37;10.50;;;10.10;99.90;;;;;;5109713;28;20196;-35
2022/11/14 08:18:00;;;;;;;13.70;10.13;;;10.20;99.90;;;;;;5109802;28;20402;-35
2022/11/14 08:20:26;;;;;;;13.60;10.30;;;10.30;99.90;;;;;;5109691;28;20782;-36
2022/11/14 08:23:12;;;;;;;12.20;9.83;;;10.50;99.90;;;;;;5119652;27;20409;-35
2022/11/14 08:25:38;;;;;;;11.10;9.77;;;10.60;99.90;;;;;;5129574;27;20495;-35
2022/11/14 08:28:04;;;;;;;13.83;10.67;;;10.80;99.90;;;;;;5129302;27;20542;-35
2022/11/14 08:30:30;;;;;;;12.73;10.47;;;10.90;99.90;;;;;;5111460;28;20477;-35
2022/11/14 08:32:56;;;;;;;12.73;9.30;;;11.00;99.90;;;;;;5095857;28;20204;-35
2022/11/14 08:35:22;;;;;;;11.60;9.90;;;11.20;99.90;;;;;;5091279;28;20888;-35
2022/11/14 08:37:48;;;;;;;12.70;10.43;;;11.30;99.90;;;;;;5093577;28;20429;-35
2022/11/14 08:40:13;;;;;;;12.30;10.00;;;11.40;99.90;;;;;;5092834;28;20265;-36
2022/11/14 08:42:39;;;;;;;14.17;11.10;;;11.50;99.90;;;;;;5093053;28;20276;-35
2022/11/14 08:45:05;;;;;;;17.20;11.67;;;11.60;99.90;;;;;;5093143;28;20180;-35
2022/11/14 08:47:31;;;;;;;13.30;11.07;;;11.60;99.90;;;;;;5093230;28;20592;-35
2022/11/14 08:49:57;;;;;;;15.83;12.47;;;11.60;99.90;;;;;;5092607;28;20418;-35
2022/11/14 08:52:23;;;;;;;14.90;12.63;;;11.70;99.90;;;;;;5092854;28;20264;-35
2022/11/14 08:54:48;;;;;;;13.50;11.93;;;11.70;99.90;;;;;;5092805;28;20403;-35
2022/11/14 08:57:14;;;;;;;15.23;11.90;;;11.70;99.90;;;;;;5096940;28;20195;-36
2022/11/14 08:59:40;;;;;;;16.97;12.73;;;11.70;99.90;;;;;;5096005;28;20204;-35
2022/11/14 09:02:10;;;;;;;16.73;13.40;;;11.70;99.90;;;;;;5109116;28;20576;-35
2022/11/14 09:04:36;;;;;;;14.57;12.00;;;11.50;99.90;;;;;;5111551;28;20466;-35
2022/11/14 09:07:01;;;;;;;15.70;12.87;;;11.50;99.90;;;;;;5112988;28;20425;-35
2022/11/14 09:09:27;;;;;;;14.50;12.13;;;11.40;99.90;;;;;;5112862;28;20467;-35
2022/11/14 09:11:53;;;;;;;15.40;13.60;;;11.30;99.90;;;;;;5113079;27;20179;-35
2022/11/14 09:14:18;;;;;;;17.83;12.87;;;11.10;99.90;;;;;;5112814;28;20175;-35
2022/11/14 09:16:46;;;;;;;14.90;13.17;;;10.90;99.90;;;;;;5104438;28;20204;-35
2022/11/14 09:19:12;;;;;;;16.23;13.60;;;10.70;99.90;;;;;;5094480;28;20192;-35
2022/11/14 09:21:38;;;;;;;15.17;13.57;;;10.50;99.90;;;;;;5101706;28;20812;-36
2022/11/14 09:24:04;;;;;;;17.80;13.63;;;10.40;99.90;;;;;;5102973;27;20415;-35
2022/11/14 09:26:30;;;;;;;15.73;12.80;;;10.40;99.90;;;;;;5097762;28;20474;-35
2022/11/14 09:28:55;;;;;;;16.70;12.77;;;10.30;99.90;;;;;;5093483;28;20689;-36
2022/11/14 09:31:21;;;;;;;17.17;14.00;;;10.20;99.90;;;;;;5111422;28;20184;-35
2022/11/14 09:33:47;;;;;;;16.90;13.73;;;10.20;99.90;;;;;;5110638;28;20180;-35
2022/11/14 09:36:14;;;;;;;17.20;14.30;;;10.10;99.90;;;;;;5112831;28;20416;-35
2022/11/14 09:38:42;;;;;;;20.27;15.63;;;10.10;99.90;;;;;;5112118;28;20417;-35
2022/11/14 09:41:07;;;;;;;18.77;14.37;;;10.10;99.90;;;;;;5112568;28;20531;-35
2022/11/14 09:43:53;;;;;;;18.40;14.20;;;10.10;99.90;;;;;;5112004;28;20519;-35
2022/11/14 09:46:26;;;;;;;22.40;13.93;;;10.10;99.90;;;;;;5111654;28;20697;-35
2022/11/14 09:48:53;;;;;;;21.00;14.80;;;10.10;99.90;;;;;;5112030;28;20602;-34
2022/11/14 09:51:24;;;;;;;21.87;14.67;;;10.00;99.90;;;;;;5112359;28;20444;-35
2022/11/14 09:54:12;;;;;;;24.63;15.93;;;9.90;99.90;;;;;;5110695;28;20406;-35
2022/11/14 09:56:38;;;;;;;22.03;14.63;;;9.80;99.90;;;;;;5106268;28;20823;-35
2022/11/14 09:59:09;;;;;;;18.47;15.10;;;9.70;99.90;;;;;;5110583;28;20414;-35
2022/11/14 10:01:41;;;;;;;19.83;14.43;;;9.60;99.90;;;;;;5112256;28;20192;-35
2022/11/14 10:04:09;;;;;;;20.80;15.10;;;9.60;99.90;;;;;;5111783;28;20813;-35
2022/11/14 10:06:50;;;;;;;21.77;16.40;;;9.50;99.90;;;;;;5111841;28;20422;-34
2022/11/14 10:09:18;;;;;;;19.40;14.53;;;9.40;99.90;;;;;;5111709;28;21231;-35
2022/11/14 10:12:03;;;;;;;21.43;14.50;;;9.40;99.90;;;;;;5111876;28;20797;-34
2022/11/14 10:14:42;;;;;;;21.63;16.00;;;9.40;99.90;;;;;;5111687;28;21120;-35
2022/11/14 10:17:30;;;;;;;19.87;14.07;;;9.40;99.90;;;;;;5111583;28;20830;-35
2022/11/14 10:20:02;;;;;;;20.63;14.73;;;9.40;99.90;;;;;;5111463;28;20469;-34
2022/11/14 10:22:48;;;;;;;18.67;14.17;;;9.50;99.90;;;;;;5111363;28;20759;-35
2022/11/14 10:25:49;;;;;;;19.90;15.03;;;9.50;99.90;;;;;;5111761;28;20397;-35
2022/11/14 10:28:36;;;;;;;19.20;14.20;;;9.50;99.90;;;;;;5068008;28;20447;-34
2022/11/14 10:31:08;;;;;;;25.00;14.77;;;9.60;99.90;;;;;;5086104;28;20422;-35
2022/11/14 10:34:03;;;;;;;19.03;14.30;;;9.60;99.90;;;;;;5089466;28;20995;-35
2022/11/14 10:36:37;;;;;;;17.83;14.27;;;9.50;99.90;;;;;;5091199;28;20507;-35
2022/11/14 10:39:30;;;;;;;20.30;13.90;;;9.50;99.90;;;;;;5090662;28;20871;-35
2022/11/14 10:42:00;;;;;;;19.00;12.70;;;9.50;99.90;;;;;;5091043;28;21073;-35
2022/11/14 10:44:32;;;;;;;17.47;13.20;;;9.50;99.90;;;;;;5090534;28;20510;-36
2022/11/14 10:47:03;;;;;;;18.80;13.87;;;9.50;99.90;;;;;;5091016;28;20433;-35
2022/11/14 10:49:35;;;;;;;20.37;14.20;;;9.50;99.90;;;;;;5090506;28;20425;-35
2022/11/14 10:52:05;;;;;;;17.60;12.87;;;9.50;99.90;;;;;;5090382;28;20502;-35
2022/11/14 10:54:58;;;;;;;15.67;12.20;;;9.50;99.90;;;;;;5089461;28;20414;-35
2022/11/14 10:57:24;;;;;;;16.43;12.43;;;9.60;99.90;;;;;;5089783;28;21077;-35
2022/11/14 10:59:52;;;;;;;17.97;12.70;;;9.60;99.90;;;;;;5090087;28;20457;-35
2022/11/14 11:02:17;;;;;;;16.97;12.83;;;9.70;99.90;;;;;;5090476;28;20410;-35
2022/11/14 11:04:45;;;;;;;16.57;12.30;;;9.70;99.90;;;;;;5088837;28;20423;-35
2022/11/14 11:11:28;;;;;;;17.17;12.60;;;9.60;99.90;;;;;;5090466;28;20192;-35
2022/11/14 11:12:53;;;;;;;14.47;11.20;;;9.60;99.90;;;;;;5090107;28;20514;-35
2022/11/14 11:15:30;;;;;;;15.90;11.53;;;9.70;99.90;;;;;;5090318;28;20409;-35
2022/11/14 11:18:00;;;;;;;17.57;12.73;;;9.70;99.90;;;;;;5090327;28;20436;-35
2022/11/14 11:20:36;;;;;;;16.40;12.03;;;9.70;99.90;;;;;;5089866;28;20458;-35
2022/11/14 11:23:08;;;;;;;17.67;12.67;;;9.80;99.90;;;;;;5113337;27;20786;-35
2022/11/14 11:25:34;;;;;;;18.07;10.93;;;10.00;99.90;;;;;;5131032;27;20416;-35
2022/11/14 11:28:20;;;;;;;20.20;12.37;;;10.00;99.90;;;;;;5131069;27;20484;-35
2022/11/14 11:31:06;;;;;;;16.73;12.13;;;10.10;99.90;;;;;;5112165;27;20432;-35
2022/11/14 11:33:34;;;;;;;13.43;11.17;;;10.10;99.90;;;;;;5107408;28;20506;-35
2022/11/14 11:36:15;;;;;;;15.03;12.10;;;10.20;99.90;;;;;;5110375;28;20436;-35
2022/11/14 11:38:41;;;;;;;17.70;11.70;;;10.20;99.90;;;;;;5109932;28;20458;-35
2022/11/14 11:41:19;;;;;;;14.60;11.63;;;10.20;99.90;;;;;;5110257;28;20472;-35
2022/11/14 11:43:54;;;;;;;14.40;11.77;;;10.20;99.90;;;;;;5108871;28;20401;-35
2022/11/14 11:46:37;;;;;;;14.63;11.30;;;10.30;99.90;;;;;;5110421;28;20474;-35
2022/11/14 11:49:16;;;;;;;13.87;11.30;;;10.30;99.90;;;;;;5109793;28;20491;-35
2022/11/14 11:51:45;;;;;;;17.93;12.67;;;10.40;99.90;;;;;;5109123;28;20421;-35
2022/11/14 11:54:18;;;;;;;17.03;11.40;;;10.60;99.90;;;;;;5109833;28;20417;-35
2022/11/14 11:56:51;;;;;;;13.20;10.27;;;10.60;99.90;;;;;;5110341;28;20502;-35
2022/11/14 11:59:27;;;;;;;12.93;10.60;;;10.60;99.90;;;;;;5109551;28;20593;-35
2022/11/14 12:01:54;;;;;;;14.20;10.47;;;10.70;99.90;;;;;;5110337;28;20406;-35
2022/11/14 12:04:20;;;;;;;14.83;11.33;;;10.60;99.90;;;;;;5109888;28;20751;-35
2022/11/14 12:07:03;;;;;;;14.47;11.73;;;10.70;99.90;;;;;;5110104;28;20429;-35
2022/11/14 12:09:37;;;;;;;12.17;9.30;;;10.60;99.90;;;;;;5110455;28;20436;-36
2022/11/14 12:12:13;;;;;;;13.13;10.03;;;10.60;99.90;;;;;;5114186;28;20927;-35
2022/11/14 12:14:55;;;;;;;12.33;9.60;;;10.60;99.90;;;;;;5113901;28;20420;-36
2022/11/14 12:17:27;;;;;;;13.30;10.83;;;10.50;99.90;;;;;;5114225;27;20405;-35
2022/11/14 12:20:15;;;;;;;11.17;8.97;;;10.40;99.90;;;;;;5113787;28;20452;-35
2022/11/14 12:22:52;;;;;;;13.43;9.57;;;10.40;99.90;;;;;;5122847;27;20413;-35
2022/11/14 12:25:36;;;;;;;14.57;10.07;;;10.50;99.90;;;;;;5133307;27;20412;-35
2022/11/14 12:28:28;;;;;;;12.87;10.77;;;10.40;99.90;;;;;;5134736;27;20404;-35
2022/11/14 12:31:00;;;;;;;13.13;9.70;;;10.50;99.90;;;;;;5114723;27;20417;-35
2022/11/14 12:33:34;;;;;;;11.13;8.83;;;10.50;99.90;;;;;;5110814;28;20425;-35
2022/11/14 12:36:04;;;;;;;11.53;8.80;;;10.40;99.90;;;;;;5114040;28;20409;-35
2022/11/14 12:38:39;;;;;;;12.10;9.20;;;10.50;99.90;;;;;;5113405;28;20938;-35
2022/11/14 12:41:06;;;;;;;13.13;8.80;;;10.40;99.90;;;;;;5113575;28;20457;-35
2022/11/14 12:43:41;;;;;;;10.30;8.80;;;10.40;99.90;;;;;;5113216;28;20410;-35
2022/11/14 12:46:11;;;;;;;12.73;9.07;;;10.40;99.90;;;;;;5113811;28;20405;-36
2022/11/14 12:48:42;;;;;;;12.37;9.57;;;10.30;99.90;;;;;;5113091;28;20417;-35
2022/11/14 12:51:29;;;;;;;12.10;9.20;;;10.40;99.90;;;;;;5112367;28;20417;-35
2022/11/14 12:53:57;;;;;;;9.50;8.13;;;10.30;99.90;;;;;;5113252;28;20441;-35